PAL552 VTSP-VTBS
Flight info
| Callsign | PAL552 |
|---|---|
| Flight time | N/A |
| Altitude | 35000 |
| Route | EMRIT1A EMRIT Y99 NONEL Y98 LEBIM LEBIM1C |
| Aircraft | A321/M-SDE3FGHIRWY/LB1 |
Departure
| Time | 2026-05-07 17:35 |
|---|---|
| Airport | Phuket International Airport (VTSP) |
Arrival
| Time | N/A |
|---|---|
| Airport | Suvarnabhumi Airport (VTBS) |
| Time | Latitude | Longitude | Altitude | Speed | Heading |
|---|---|---|---|---|---|
| 2026-05-07 17:15 | 8.10840 | 98.30538 | 31 ft | 0 kts | 104° |
| 2026-05-07 17:25 | 8.10841 | 98.30534 | 30 ft | 2 kts | 104° |
| 2026-05-07 17:26 | 8.10844 | 98.30518 | 30 ft | 2 kts | 99° |
| 2026-05-07 17:26 | 8.10846 | 98.30501 | 30 ft | 2 kts | 93° |
| 2026-05-07 17:26 | 8.10847 | 98.30484 | 30 ft | 2 kts | 85° |
| 2026-05-07 17:26 | 8.10844 | 98.30468 | 30 ft | 2 kts | 72° |
| 2026-05-07 17:27 | 8.10838 | 98.30453 | 30 ft | 2 kts | 54° |
| 2026-05-07 17:27 | 8.10827 | 98.30440 | 30 ft | 2 kts | 34° |
| 2026-05-07 17:27 | 8.10813 | 98.30432 | 30 ft | 2 kts | 18° |
| 2026-05-07 17:27 | 8.10805 | 98.30429 | 30 ft | 1 kts | 13° |
| 2026-05-07 17:29 | 8.10807 | 98.30430 | 30 ft | 1 kts | 14° |
| 2026-05-07 17:29 | 8.10823 | 98.30434 | 30 ft | 3 kts | 15° |
| 2026-05-07 17:29 | 8.10851 | 98.30443 | 30 ft | 5 kts | 18° |
| 2026-05-07 17:29 | 8.10893 | 98.30453 | 30 ft | 7 kts | 13° |
| 2026-05-07 17:30 | 8.10946 | 98.30467 | 30 ft | 9 kts | 15° |
| 2026-05-07 17:30 | 8.11011 | 98.30475 | 30 ft | 9 kts | 342° |
| 2026-05-07 17:30 | 8.11039 | 98.30415 | 30 ft | 10 kts | 272° |
| 2026-05-07 17:30 | 8.11073 | 98.30357 | 30 ft | 10 kts | 342° |
| 2026-05-07 17:31 | 8.11095 | 98.30351 | 30 ft | 0 kts | 345° |
| 2026-05-07 17:31 | 8.11098 | 98.30351 | 30 ft | 1 kts | 350° |
| 2026-05-07 17:31 | 8.11112 | 98.30348 | 30 ft | 3 kts | 350° |
| 2026-05-07 17:31 | 8.11138 | 98.30344 | 31 ft | 5 kts | 351° |
| 2026-05-07 17:32 | 8.11175 | 98.30348 | 31 ft | 6 kts | 19° |
| 2026-05-07 17:32 | 8.11195 | 98.30383 | 30 ft | 7 kts | 75° |
| 2026-05-07 17:32 | 8.11202 | 98.30414 | 30 ft | 1 kts | 82° |
| 2026-05-07 17:32 | 8.11202 | 98.30419 | 30 ft | 0 kts | 82° |
| 2026-05-07 17:33 | 8.11202 | 98.30420 | 30 ft | 0 kts | 82° |
| 2026-05-07 17:34 | 8.11203 | 98.30422 | 30 ft | 0 kts | 82° |
| 2026-05-07 17:34 | 8.11213 | 98.30520 | 29 ft | 47 kts | 84° |
| 2026-05-07 17:34 | 8.11270 | 98.31117 | 40 ft | 120 kts | 84° |
| 2026-05-07 17:35 | 8.11359 | 98.32157 | 98 ft | 172 kts | 86° |
| 2026-05-07 17:35 | 8.11463 | 98.33390 | 733 ft | 172 kts | 85° |
| 2026-05-07 17:35 | 8.11578 | 98.34572 | 1588 ft | 168 kts | 84° |
| 2026-05-07 17:35 | 8.11702 | 98.35732 | 2404 ft | 165 kts | 83° |
| 2026-05-07 17:36 | 8.11847 | 98.36963 | 2950 ft | 191 kts | 83° |
| 2026-05-07 17:36 | 8.12024 | 98.38305 | 3492 ft | 194 kts | 83° |
| 2026-05-07 17:36 | 8.12223 | 98.39669 | 4047 ft | 197 kts | 82° |
| 2026-05-07 17:36 | 8.12423 | 98.41041 | 4611 ft | 198 kts | 83° |
| 2026-05-07 17:37 | 8.12606 | 98.42409 | 5146 ft | 199 kts | 84° |
| 2026-05-07 17:37 | 8.12738 | 98.43827 | 5515 ft | 211 kts | 88° |
| 2026-05-07 17:37 | 8.12816 | 98.45381 | 5659 ft | 232 kts | 88° |
| 2026-05-07 17:37 | 8.12900 | 98.47092 | 5807 ft | 254 kts | 88° |
| 2026-05-07 17:38 | 8.13010 | 98.48898 | 6257 ft | 261 kts | 87° |
| 2026-05-07 17:38 | 8.13147 | 98.50789 | 6660 ft | 276 kts | 86° |
| 2026-05-07 17:38 | 8.13284 | 98.52481 | 7229 ft | 280 kts | 86° |
| 2026-05-07 17:38 | 8.13455 | 98.54454 | 7952 ft | 283 kts | 85° |
| 2026-05-07 17:39 | 8.13635 | 98.56444 | 8684 ft | 286 kts | 85° |
| 2026-05-07 17:39 | 8.13823 | 98.58455 | 9423 ft | 289 kts | 85° |
| 2026-05-07 17:39 | 8.13998 | 98.60454 | 10085 ft | 292 kts | 89° |
| 2026-05-07 17:39 | 8.13872 | 98.62563 | 10314 ft | 312 kts | 100° |
| 2026-05-07 17:40 | 8.13471 | 98.64799 | 10439 ft | 334 kts | 101° |
| 2026-05-07 17:40 | 8.13042 | 98.67187 | 10573 ft | 354 kts | 101° |
| 2026-05-07 17:40 | 8.12599 | 98.69673 | 10976 ft | 363 kts | 100° |
| 2026-05-07 17:40 | 8.12157 | 98.72167 | 11545 ft | 367 kts | 100° |
| 2026-05-07 17:41 | 8.11709 | 98.74712 | 12163 ft | 369 kts | 100° |
| 2026-05-07 17:41 | 8.11260 | 98.77273 | 12776 ft | 372 kts | 100° |
| 2026-05-07 17:41 | 8.10808 | 98.79862 | 13387 ft | 375 kts | 99° |
| 2026-05-07 17:41 | 8.10576 | 98.82522 | 13615 ft | 389 kts | 90° |
| 2026-05-07 17:42 | 8.10605 | 98.85307 | 13824 ft | 401 kts | 89° |
| 2026-05-07 17:42 | 8.10644 | 98.88141 | 14238 ft | 407 kts | 89° |
| 2026-05-07 17:42 | 8.10683 | 98.91013 | 14728 ft | 411 kts | 89° |
| 2026-05-07 17:42 | 8.10761 | 98.93912 | 15204 ft | 414 kts | 85° |
| 2026-05-07 17:43 | 8.11359 | 98.96762 | 15665 ft | 419 kts | 71° |
| 2026-05-07 17:43 | 8.12623 | 98.99423 | 16113 ft | 423 kts | 58° |
| 2026-05-07 17:43 | 8.14492 | 99.01744 | 16552 ft | 428 kts | 47° |
| 2026-05-07 17:43 | 8.16555 | 99.03925 | 16990 ft | 431 kts | 47° |
| 2026-05-07 17:44 | 8.18632 | 99.06123 | 17420 ft | 434 kts | 47° |
| 2026-05-07 17:44 | 8.20697 | 99.08310 | 17831 ft | 437 kts | 47° |
| 2026-05-07 17:44 | 8.22799 | 99.10541 | 18232 ft | 440 kts | 47° |
| 2026-05-07 17:44 | 8.24921 | 99.12796 | 18575 ft | 443 kts | 47° |
| 2026-05-07 17:45 | 8.27050 | 99.15060 | 18929 ft | 445 kts | 47° |
| 2026-05-07 17:45 | 8.29186 | 99.17338 | 19276 ft | 448 kts | 48° |
| 2026-05-07 17:45 | 8.31333 | 99.19628 | 19614 ft | 450 kts | 48° |
| 2026-05-07 17:45 | 8.33486 | 99.21921 | 20090 ft | 447 kts | 48° |
| 2026-05-07 17:46 | 8.35588 | 99.24156 | 21200 ft | 428 kts | 48° |
| 2026-05-07 17:46 | 8.37622 | 99.26314 | 21958 ft | 425 kts | 48° |
| 2026-05-07 17:46 | 8.39683 | 99.28503 | 22085 ft | 434 kts | 48° |
| 2026-05-07 17:46 | 8.41829 | 99.30696 | 22207 ft | 443 kts | 43° |
| 2026-05-07 17:47 | 8.44332 | 99.32503 | 22342 ft | 453 kts | 31° |
| 2026-05-07 17:47 | 8.47257 | 99.33781 | 22463 ft | 463 kts | 18° |
| 2026-05-07 17:47 | 8.50443 | 99.34410 | 22596 ft | 472 kts | 6° |
| 2026-05-07 17:47 | 8.53745 | 99.34586 | 22730 ft | 478 kts | 4° |
| 2026-05-07 17:48 | 8.57098 | 99.34748 | 22859 ft | 484 kts | 4° |
| 2026-05-07 17:48 | 8.60494 | 99.34911 | 22987 ft | 489 kts | 4° |
| 2026-05-07 17:48 | 8.63868 | 99.35075 | 23114 ft | 495 kts | 4° |
| 2026-05-07 17:48 | 8.67294 | 99.35536 | 23235 ft | 497 kts | 14° |
| 2026-05-07 17:49 | 8.70665 | 99.36359 | 23388 ft | 500 kts | 15° |
| 2026-05-07 17:49 | 8.74050 | 99.37197 | 23560 ft | 502 kts | 15° |
| 2026-05-07 17:49 | 8.76302 | 99.37759 | 23671 ft | 502 kts | 15° |
| 2026-05-07 17:49 | 8.79700 | 99.38613 | 23842 ft | 503 kts | 15° |
| 2026-05-07 17:50 | 8.83106 | 99.39474 | 24004 ft | 504 kts | 15° |
| 2026-05-07 17:50 | 8.87622 | 99.40612 | 24199 ft | 505 kts | 15° |
| 2026-05-07 17:50 | 8.91042 | 99.41470 | 24346 ft | 506 kts | 15° |
| 2026-05-07 17:50 | 8.93357 | 99.42048 | 24432 ft | 507 kts | 15° |
| 2026-05-07 17:51 | 8.96781 | 99.42903 | 24563 ft | 507 kts | 15° |
| 2026-05-07 17:51 | 9.00173 | 99.43750 | 24678 ft | 508 kts | 15° |
| 2026-05-07 17:51 | 9.03609 | 99.44606 | 24788 ft | 509 kts | 15° |
| 2026-05-07 17:51 | 9.07057 | 99.45463 | 24898 ft | 509 kts | 15° |
| 2026-05-07 17:52 | 9.10485 | 99.46317 | 25271 ft | 502 kts | 15° |
| 2026-05-07 17:52 | 9.13819 | 99.47148 | 26259 ft | 483 kts | 15° |
| 2026-05-07 17:52 | 9.17021 | 99.47947 | 27300 ft | 467 kts | 15° |
| 2026-05-07 17:52 | 9.20162 | 99.48733 | 27896 ft | 463 kts | 15° |
| 2026-05-07 17:53 | 9.23176 | 99.49466 | 28466 ft | 418 kts | 15° |
| 2026-05-07 17:53 | 9.25805 | 99.50224 | 28899 ft | 367 kts | 21° |
| 2026-05-07 17:53 | 9.28112 | 99.51146 | 28985 ft | 348 kts | 26° |
| 2026-05-07 17:53 | 9.30326 | 99.52280 | 28721 ft | 366 kts | 32° |
| 2026-05-07 17:54 | 9.32537 | 99.53633 | 28568 ft | 383 kts | 36° |
| 2026-05-07 17:54 | 9.34693 | 99.55287 | 28511 ft | 395 kts | 45° |
| 2026-05-07 17:54 | 9.36589 | 99.57284 | 27476 ft | 382 kts | 18° |
| 2026-05-07 17:54 | 9.38508 | 99.59571 | 25881 ft | 448 kts | 63° |
| 2026-05-07 17:55 | 9.39649 | 99.62546 | 24599 ft | 472 kts | 100° |
| 2026-05-07 17:55 | 9.38337 | 99.65668 | 22857 ft | 492 kts | 119° |
| 2026-05-07 17:55 | 9.36560 | 99.68581 | 22451 ft | 466 kts | 143° |
| 2026-05-07 17:55 | 9.33910 | 99.70102 | 23126 ft | 425 kts | 166° |
| 2026-05-07 17:56 | 9.31053 | 99.70765 | 22159 ft | 417 kts | 172° |
| 2026-05-07 17:56 | 9.28187 | 99.70979 | 20894 ft | 412 kts | 178° |
| 2026-05-07 17:56 | 9.25384 | 99.70876 | 19911 ft | 389 kts | 168° |
| 2026-05-07 17:56 | 9.23255 | 99.71054 | 14482 ft | 246 kts | 206° |
| 2026-05-07 17:57 | 9.20545 | 99.70350 | 9585 ft | 457 kts | 176° |
| 2026-05-07 17:57 | 9.18500 | 99.70654 | 8449 ft | 432 kts | 163° |
| 2026-05-07 17:57 | 9.15091 | 99.70761 | 4044 ft | 404 kts | 183° |
| 2026-05-07 17:57 | 9.12522 | 99.70587 | 5179 ft | 325 kts | 184° |
| 2026-05-07 17:58 | 9.10728 | 99.70401 | 7197 ft | 186 kts | 186° |
| 2026-05-07 17:58 | 9.09804 | 99.70309 | 8296 ft | 104 kts | 178° |
| 2026-05-07 17:58 | 9.09232 | 99.70371 | 6144 ft | 76 kts | 107° |
| 2026-05-07 17:58 | 9.09538 | 99.70629 | 806 ft | 129 kts | 60° |